createdAt,value
2019-03-01T00:01:37.817Z,5.80
2019-03-01T00:04:17.612Z,6.30
2019-03-01T00:07:28.930Z,5.97
2019-03-01T00:10:14.175Z,6.20
2019-03-01T00:13:28.341Z,5.63
2019-03-01T00:16:19.087Z,6.07
2019-03-01T00:19:11.071Z,5.87
2019-03-01T00:22:06.143Z,6.10
2019-03-01T00:25:11.389Z,6.40
2019-03-01T00:28:36.068Z,6.77
2019-03-01T00:31:29.364Z,6.50
2019-03-01T00:34:26.199Z,5.47
2019-03-01T00:37:37.040Z,6.07
2019-03-01T00:40:13.596Z,5.10
2019-03-01T00:43:03.766Z,5.30
2019-03-01T00:45:31.131Z,5.67
2019-03-01T00:47:58.523Z,6.13
2019-03-01T00:50:25.848Z,5.97
2019-03-01T00:52:53.179Z,5.33
2019-03-01T00:55:20.545Z,5.43
2019-03-01T00:57:47.889Z,4.90
2019-03-01T01:00:21.468Z,5.30
2019-03-01T01:02:48.768Z,5.20
2019-03-01T01:05:16.026Z,5.43
2019-03-01T01:07:43.377Z,4.00
2019-03-01T01:10:10.660Z,4.57
2019-03-01T01:12:38.029Z,4.53
2019-03-01T01:15:05.839Z,4.83
2019-03-01T01:17:33.104Z,4.97
2019-03-01T01:20:00.393Z,4.80
2019-03-01T01:22:27.632Z,4.93
2019-03-01T01:24:54.998Z,3.70
2019-03-01T01:27:22.356Z,4.90
2019-03-01T01:29:49.607Z,3.70
2019-03-01T01:32:16.883Z,4.13
2019-03-01T01:34:44.246Z,3.37
2019-03-01T01:37:11.552Z,3.57
2019-03-01T01:39:38.901Z,3.93
2019-03-01T01:42:06.192Z,3.30
2019-03-01T01:44:33.431Z,2.87
2019-03-01T01:47:00.667Z,3.40
2019-03-01T01:49:27.964Z,3.37
2019-03-01T01:51:55.191Z,3.17
2019-03-01T01:54:22.459Z,3.13
2019-03-01T01:56:49.707Z,3.20
2019-03-01T01:59:16.971Z,3.60
2019-03-01T02:01:44.223Z,3.60
2019-03-01T02:04:11.487Z,3.97
2019-03-01T02:06:38.735Z,3.73
2019-03-01T02:09:17.347Z,3.47
2019-03-01T02:11:44.624Z,3.60
2019-03-01T02:14:11.885Z,3.50
2019-03-01T02:16:39.156Z,3.83
2019-03-01T02:19:06.420Z,4.30
2019-03-01T02:21:33.659Z,4.07
2019-03-01T02:24:00.905Z,4.10
2019-03-01T02:26:28.177Z,4.20
2019-03-01T02:28:55.444Z,4.03
2019-03-01T02:31:22.799Z,3.50
2019-03-01T02:33:50.051Z,4.50
2019-03-01T02:36:17.330Z,4.40
2019-03-01T02:38:44.676Z,4.83
2019-03-01T02:41:11.959Z,5.00
2019-03-01T02:43:39.202Z,4.83
2019-03-01T02:46:06.545Z,5.00
2019-03-01T02:48:33.796Z,5.10
2019-03-01T02:51:01.139Z,5.43
2019-03-01T02:53:28.439Z,5.03
2019-03-01T02:55:55.706Z,5.80
2019-03-01T02:58:22.970Z,5.90
2019-03-01T03:00:50.223Z,6.90
2019-03-01T03:03:17.564Z,5.63
2019-03-01T03:06:13.053Z,6.00
2019-03-01T03:08:40.409Z,6.23
2019-03-01T03:11:07.720Z,7.43
2019-03-01T03:13:35.107Z,6.47
2019-03-01T03:16:02.347Z,7.27
2019-03-01T03:18:29.618Z,7.33
2019-03-01T03:20:56.890Z,8.00
2019-03-01T03:23:24.209Z,7.63
2019-03-01T03:25:51.473Z,7.03
2019-03-01T03:28:18.753Z,7.33
2019-03-01T03:30:46.114Z,8.00
2019-03-01T03:33:13.510Z,8.00
2019-03-01T03:35:40.874Z,8.37
2019-03-01T03:38:08.131Z,8.60
2019-03-01T03:40:35.532Z,9.13
2019-03-01T03:43:02.774Z,8.30
2019-03-01T03:45:30.075Z,9.53
2019-03-01T03:47:57.355Z,8.77
2019-03-01T03:50:24.700Z,9.40
2019-03-01T03:52:52.052Z,9.77
2019-03-01T03:55:19.306Z,8.70
2019-03-01T03:57:47.171Z,9.17
2019-03-01T04:00:16.722Z,9.63
2019-03-01T04:02:43.968Z,9.13
2019-03-01T04:05:11.368Z,9.83
2019-03-01T04:07:38.740Z,9.83
2019-03-01T04:10:06.351Z,9.73
2019-03-01T04:12:33.726Z,9.00
2019-03-01T04:15:00.982Z,9.20
2019-03-01T04:17:28.438Z,9.53
2019-03-01T04:19:55.683Z,10.23
2019-03-01T04:22:22.929Z,9.00
2019-03-01T04:24:50.180Z,9.67
2019-03-01T04:27:17.437Z,9.83
2019-03-01T04:29:44.773Z,8.90
2019-03-01T04:32:12.042Z,9.53
2019-03-01T04:34:39.376Z,9.63
2019-03-01T04:37:06.603Z,10.37
2019-03-01T04:39:33.875Z,9.10
2019-03-01T04:42:01.117Z,8.87
2019-03-01T04:44:28.342Z,9.03
2019-03-01T04:46:55.623Z,9.60
2019-03-01T04:49:22.852Z,9.27
2019-03-01T04:51:50.124Z,8.83
2019-03-01T04:54:17.424Z,9.20
2019-03-01T04:56:44.663Z,8.47
2019-03-01T04:59:11.903Z,9.17
2019-03-01T05:01:39.236Z,8.90
2019-03-01T05:04:06.487Z,8.87
2019-03-01T05:06:33.760Z,8.50
2019-03-01T05:09:00.997Z,7.90
2019-03-01T05:11:28.265Z,8.90
2019-03-01T05:13:55.588Z,10.10
2019-03-01T05:16:22.828Z,8.10
2019-03-01T05:18:50.105Z,8.70
2019-03-01T05:21:17.340Z,9.83
2019-03-01T05:23:44.611Z,8.33
2019-03-01T05:26:11.847Z,9.50
2019-03-01T05:28:39.138Z,10.73
2019-03-01T05:31:06.481Z,10.30
2019-03-01T05:33:33.749Z,11.50
2019-03-01T05:36:01.107Z,10.77
2019-03-01T05:38:28.375Z,11.10
2019-03-01T05:40:55.660Z,11.67
2019-03-01T05:43:22.910Z,10.07
2019-03-01T05:45:50.214Z,11.23
2019-03-01T05:48:17.632Z,10.93
2019-03-01T05:50:44.981Z,12.33
2019-03-01T05:53:12.994Z,10.60
2019-03-01T05:55:40.368Z,10.00
2019-03-01T05:58:30.928Z,8.97
2019-03-01T06:01:04.915Z,10.60
2019-03-01T06:04:14.728Z,9.93
2019-03-01T06:07:33.354Z,10.47
2019-03-01T06:10:28.697Z,8.87
2019-03-01T06:13:37.150Z,19.13
2019-03-01T06:16:55.083Z,18.23
2019-03-01T06:19:41.921Z,13.20
2019-03-01T06:22:43.662Z,11.57
2019-03-01T06:25:52.131Z,11.60
2019-03-01T06:28:45.088Z,10.40
2019-03-01T06:31:53.064Z,10.00
2019-03-01T06:34:49.407Z,8.40
2019-03-01T06:37:43.263Z,9.17
2019-03-01T06:40:29.748Z,10.40
2019-03-01T06:43:06.155Z,9.77
2019-03-01T06:46:01.994Z,9.97
2019-03-01T06:48:38.407Z,10.70
2019-03-01T06:51:29.171Z,9.50
2019-03-01T06:53:55.509Z,9.47
2019-03-01T06:56:22.803Z,9.67
2019-03-01T06:58:53.570Z,8.83
2019-03-01T07:01:26.212Z,8.93
2019-03-01T07:04:02.809Z,9.00
2019-03-01T07:06:30.318Z,9.17
2019-03-01T07:08:57.659Z,8.93
2019-03-01T07:11:24.942Z,8.93
2019-03-01T07:13:52.215Z,8.90
2019-03-01T07:16:19.485Z,8.40
2019-03-01T07:18:46.738Z,7.90
2019-03-01T07:21:14.011Z,8.43
2019-03-01T07:23:41.306Z,8.63
2019-03-01T07:26:08.565Z,8.83
2019-03-01T07:28:35.829Z,8.33
2019-03-01T07:31:03.092Z,8.07
2019-03-01T07:33:30.347Z,8.53
2019-03-01T07:35:57.600Z,7.90
2019-03-01T07:38:24.843Z,8.20
2019-03-01T07:40:52.203Z,8.23
2019-03-01T07:43:19.436Z,7.93
2019-03-01T07:45:46.703Z,7.57
2019-03-01T07:48:13.943Z,9.07
2019-03-01T07:50:41.223Z,8.07
2019-03-01T07:53:09.272Z,8.03
2019-03-01T07:55:50.667Z,8.07
2019-03-01T07:58:18.324Z,8.70
2019-03-01T08:00:47.188Z,7.67
2019-03-01T08:03:15.911Z,8.40
2019-03-01T08:05:43.820Z,7.43
2019-03-01T08:08:11.085Z,7.60
2019-03-01T08:10:38.325Z,6.70
2019-03-01T08:13:06.926Z,6.77
2019-03-01T08:15:34.327Z,7.20
2019-03-01T08:18:04.817Z,7.20
2019-03-01T08:20:33.931Z,5.53
2019-03-01T08:23:00.781Z,5.73
2019-03-01T08:25:28.559Z,5.00
2019-03-01T08:27:56.012Z,4.57
2019-03-01T08:30:23.333Z,4.77
2019-03-01T08:32:50.575Z,4.03
2019-03-01T08:35:17.880Z,3.83
2019-03-01T08:37:45.218Z,3.70
2019-03-01T08:40:14.703Z,3.37
2019-03-01T08:42:43.056Z,2.97
2019-03-01T08:45:12.265Z,2.90
2019-03-01T08:47:39.536Z,2.60
2019-03-01T08:50:08.080Z,2.23
2019-03-01T08:52:37.221Z,1.77
2019-03-01T08:55:06.139Z,2.20
2019-03-01T08:57:33.482Z,2.10
2019-03-01T09:00:01.177Z,1.70
2019-03-01T09:02:28.431Z,1.53
2019-03-01T09:04:55.725Z,2.23
2019-03-01T09:07:22.959Z,2.23
2019-03-01T09:09:50.465Z,0.80
2019-03-01T09:12:17.888Z,0.93
2019-03-01T09:14:45.235Z,0.80
2019-03-01T09:17:15.513Z,0.77
2019-03-01T09:19:42.923Z,0.80
2019-03-01T09:22:10.388Z,0.70
2019-03-01T09:24:37.785Z,1.00
2019-03-01T09:27:07.678Z,0.50
2019-03-01T09:29:41.698Z,0.73
2019-03-01T09:32:06.196Z,0.60
2019-03-01T09:34:33.445Z,0.50
2019-03-01T09:37:00.828Z,0.80
2019-03-01T09:39:28.078Z,0.70
2019-03-01T09:42:02.852Z,0.50
2019-03-01T09:44:24.493Z,0.47
2019-03-01T09:46:51.842Z,0.60
2019-03-01T09:49:21.439Z,0.80
2019-03-01T09:51:49.994Z,0.93
2019-03-01T09:54:17.460Z,0.70
2019-03-01T09:56:44.819Z,0.60
2019-03-01T09:59:12.601Z,1.17
2019-03-01T10:01:40.084Z,0.97
2019-03-01T10:04:07.360Z,0.60
2019-03-01T10:06:38.358Z,1.00
2019-03-01T10:09:09.687Z,0.70
2019-03-01T10:11:37.016Z,0.93
2019-03-01T10:14:04.371Z,1.20
2019-03-01T10:16:31.701Z,0.90
2019-03-01T10:18:59.256Z,0.73
2019-03-01T10:21:26.919Z,0.80
2019-03-01T10:23:55.308Z,1.00
2019-03-01T10:26:22.672Z,0.70
2019-03-01T10:28:49.957Z,0.80
2019-03-01T10:31:17.199Z,1.07
2019-03-01T10:33:44.451Z,1.03
2019-03-01T10:36:11.742Z,1.10
2019-03-01T10:38:38.995Z,1.03
2019-03-01T10:41:06.267Z,1.20
2019-03-01T10:43:33.535Z,0.93
2019-03-01T10:46:00.785Z,1.70
2019-03-01T10:48:28.045Z,1.53
2019-03-01T10:50:55.259Z,1.40
2019-03-01T10:53:22.528Z,2.00
2019-03-01T10:55:49.794Z,2.63
2019-03-01T10:58:17.077Z,4.73
2019-03-01T11:00:44.493Z,17.90
2019-03-01T11:03:11.753Z,27.27
2019-03-01T11:05:39.124Z,5.40
2019-03-01T11:08:06.420Z,6.90
2019-03-01T11:10:34.819Z,9.27
2019-03-01T11:13:02.046Z,6.77
2019-03-01T11:15:29.328Z,30.33
2019-03-01T11:17:56.630Z,9.47
2019-03-01T11:20:24.019Z,8.03
2019-03-01T11:22:51.356Z,7.87
2019-03-01T11:25:19.138Z,6.83
2019-03-01T11:27:46.863Z,26.27
2019-03-01T11:30:16.340Z,7.20
2019-03-01T11:32:43.590Z,8.17
2019-03-01T11:35:11.289Z,7.93
2019-03-01T11:37:38.735Z,7.87
2019-03-01T11:40:08.131Z,7.90
2019-03-01T11:42:35.474Z,9.77
2019-03-01T11:45:03.960Z,11.23
2019-03-01T11:47:31.219Z,11.57
2019-03-01T11:49:58.480Z,12.03
2019-03-01T11:52:25.770Z,12.00
2019-03-01T11:54:53.022Z,17.83
2019-03-01T11:57:20.267Z,16.07
2019-03-01T11:59:47.506Z,16.23
2019-03-01T12:02:14.871Z,15.80
2019-03-01T12:04:42.159Z,16.23
2019-03-01T12:07:09.399Z,15.57
2019-03-01T12:09:36.652Z,18.13
2019-03-01T12:12:04.035Z,16.77
2019-03-01T12:14:31.287Z,17.27
2019-03-01T12:16:58.633Z,18.00
2019-03-01T12:19:25.902Z,18.87
2019-03-01T12:21:53.154Z,19.20
2019-03-01T12:24:20.410Z,20.37
2019-03-01T12:26:47.757Z,21.27
2019-03-01T12:29:14.995Z,23.13
2019-03-01T12:31:42.263Z,23.33
2019-03-01T12:34:09.514Z,24.87
2019-03-01T12:36:36.771Z,24.23
2019-03-01T12:39:07.117Z,26.37
2019-03-01T12:41:34.443Z,26.17
2019-03-01T12:44:01.712Z,24.47
2019-03-01T12:46:28.995Z,27.33
2019-03-01T12:48:56.246Z,27.37
2019-03-01T12:51:23.501Z,29.50
2019-03-01T12:53:50.764Z,29.67
2019-03-01T12:56:18.000Z,31.20
2019-03-01T12:58:45.255Z,31.80
2019-03-01T13:01:12.627Z,34.60
2019-03-01T13:03:40.551Z,36.30
2019-03-01T13:06:09.094Z,39.63
2019-03-01T13:08:36.343Z,35.20
2019-03-01T13:11:03.607Z,38.37
2019-03-01T13:13:30.871Z,38.47
2019-03-01T13:15:58.130Z,39.80
2019-03-01T13:18:25.363Z,41.00
2019-03-01T13:20:52.603Z,40.13
2019-03-01T13:23:19.886Z,40.30
2019-03-01T13:25:47.153Z,40.30
2019-03-01T13:28:14.397Z,54.53
2019-03-01T13:30:41.641Z,49.30
2019-03-01T13:33:08.899Z,42.07
2019-03-01T13:35:36.147Z,42.07
2019-03-01T13:38:04.034Z,42.50
2019-03-01T13:40:31.463Z,41.83
2019-03-01T13:42:58.712Z,43.70
2019-03-01T13:45:26.135Z,44.20
2019-03-01T13:47:54.258Z,42.53
2019-03-01T13:50:21.916Z,43.67
2019-03-01T13:52:49.983Z,43.20
2019-03-01T13:55:18.501Z,45.57
2019-03-01T13:57:50.031Z,45.13
2019-03-01T14:00:16.704Z,46.37
2019-03-01T14:02:47.041Z,47.77
2019-03-01T14:05:17.171Z,43.83
2019-03-01T14:07:43.825Z,45.10
2019-03-01T14:10:12.578Z,44.27
2019-03-01T14:12:39.902Z,46.67
2019-03-01T14:15:09.774Z,46.43
2019-03-01T14:17:37.117Z,46.50
2019-03-01T14:20:06.071Z,46.63
2019-03-01T14:22:33.339Z,46.53
2019-03-01T14:25:02.459Z,47.00
2019-03-01T14:27:30.406Z,47.87
2019-03-01T14:29:57.712Z,48.40
2019-03-01T14:32:24.947Z,48.03
2019-03-01T14:34:52.190Z,48.47
2019-03-01T14:37:19.452Z,47.43
2019-03-01T14:39:46.707Z,49.30
2019-03-01T14:42:13.952Z,47.17
2019-03-01T14:44:41.215Z,47.00
2019-03-01T14:47:08.477Z,45.07
2019-03-01T14:49:35.757Z,45.70
2019-03-01T14:52:03.100Z,44.07
2019-03-01T14:54:30.368Z,42.93
2019-03-01T14:57:02.879Z,41.90
2019-03-01T14:59:38.185Z,42.67
2019-03-01T15:02:21.238Z,41.33
2019-03-01T15:04:48.472Z,43.67
2019-03-01T15:07:15.719Z,42.30
2019-03-01T15:09:43.019Z,43.80
2019-03-01T15:12:10.256Z,42.53
2019-03-01T15:14:37.534Z,42.70
2019-03-01T15:17:05.015Z,42.90
2019-03-01T15:19:32.252Z,42.57
2019-03-01T15:21:59.488Z,43.53
2019-03-01T15:24:26.882Z,43.57
2019-03-01T15:26:54.136Z,42.30
2019-03-01T15:29:21.375Z,41.30
2019-03-01T15:31:51.202Z,41.03
2019-03-01T15:34:20.534Z,39.93
2019-03-01T15:36:46.960Z,40.20
2019-03-01T15:39:16.761Z,40.57
2019-03-01T15:41:43.339Z,39.87
2019-03-01T15:44:10.636Z,39.53
2019-03-01T15:46:37.879Z,40.73
2019-03-01T15:49:05.249Z,39.47
2019-03-01T15:51:34.656Z,37.60
2019-03-01T15:54:02.001Z,39.80
2019-03-01T15:56:29.386Z,39.40
2019-03-01T15:58:56.655Z,37.70
2019-03-01T16:01:23.891Z,38.77
2019-03-01T16:03:54.131Z,39.00
2019-03-01T16:06:22.331Z,38.20
2019-03-01T16:08:49.488Z,40.23
2019-03-01T16:11:16.819Z,38.63
2019-03-01T16:13:48.001Z,36.83
2019-03-01T16:16:13.752Z,39.23
2019-03-01T16:18:41.991Z,37.13
2019-03-01T16:21:09.240Z,40.97
2019-03-01T16:23:36.526Z,37.77
2019-03-01T16:26:03.772Z,37.70
2019-03-01T16:28:31.459Z,38.77
2019-03-01T16:30:59.697Z,40.80
2019-03-01T16:33:29.733Z,38.47
2019-03-01T16:35:56.085Z,39.70
2019-03-01T16:38:23.312Z,40.47
2019-03-01T16:40:50.576Z,39.23
2019-03-01T16:43:17.816Z,37.03
2019-03-01T16:45:45.056Z,39.30
2019-03-01T16:48:13.546Z,39.40
2019-03-01T16:50:44.065Z,37.07
2019-03-01T16:53:11.475Z,38.07
2019-03-01T16:55:38.711Z,36.77
2019-03-01T16:58:07.202Z,39.37
2019-03-01T17:00:34.740Z,38.27
2019-03-01T17:03:02.065Z,37.93
2019-03-01T17:05:29.320Z,37.43
2019-03-01T17:07:59.793Z,39.50
2019-03-01T17:10:26.517Z,39.50
2019-03-01T17:12:54.911Z,40.60
2019-03-01T17:15:22.187Z,39.27
2019-03-01T17:17:49.575Z,38.47
2019-03-01T17:20:16.835Z,36.93
2019-03-01T17:22:44.073Z,38.40
2019-03-01T17:25:11.898Z,38.13
2019-03-01T17:27:40.003Z,36.60
2019-03-01T17:30:11.186Z,36.03
2019-03-01T17:32:38.831Z,36.87
2019-03-01T17:35:06.705Z,37.03
2019-03-01T17:37:33.960Z,35.73
2019-03-01T17:40:01.219Z,34.10
2019-03-01T17:42:28.472Z,35.60
2019-03-01T17:44:55.747Z,33.93
2019-03-01T17:47:23.016Z,32.67
2019-03-01T17:49:50.352Z,32.63
2019-03-01T17:52:17.607Z,32.97
2019-03-01T17:54:44.897Z,32.07
2019-03-01T17:57:12.176Z,30.90
2019-03-01T17:59:39.444Z,31.03
2019-03-01T18:02:06.747Z,29.03
2019-03-01T18:04:36.889Z,29.17
2019-03-01T18:07:03.193Z,29.00
2019-03-01T18:09:30.447Z,30.17
2019-03-01T18:11:57.747Z,29.80
2019-03-01T18:14:24.976Z,29.20
2019-03-01T18:16:52.235Z,29.37
2019-03-01T18:19:19.520Z,27.20
2019-03-01T18:21:49.961Z,28.10
2019-03-01T18:24:15.957Z,27.53
2019-03-01T18:26:43.299Z,26.47
2019-03-01T18:29:10.550Z,25.57
2019-03-01T18:31:37.919Z,24.80
2019-03-01T18:34:05.232Z,23.70
2019-03-01T18:36:32.511Z,23.40
2019-03-01T18:39:00.210Z,24.50
2019-03-01T18:41:28.268Z,24.33
2019-03-01T18:43:55.654Z,21.07
2019-03-01T18:46:22.993Z,20.73
2019-03-01T18:48:50.231Z,19.27
2019-03-01T18:51:17.499Z,20.07
2019-03-01T18:53:45.572Z,22.10
2019-03-01T18:56:13.100Z,20.23
2019-03-01T18:58:40.411Z,20.00
2019-03-01T19:01:10.892Z,19.60
2019-03-01T19:03:40.339Z,18.43
2019-03-01T19:06:08.099Z,19.47
2019-03-01T19:08:36.400Z,17.53
2019-03-01T19:11:03.870Z,17.70
2019-03-01T19:13:31.291Z,17.13
2019-03-01T19:15:58.540Z,17.37
2019-03-01T19:18:25.825Z,16.43
2019-03-01T19:20:53.080Z,15.60
2019-03-01T19:23:20.351Z,15.23
2019-03-01T19:25:47.609Z,13.83
2019-03-01T19:28:14.852Z,11.10
2019-03-01T19:30:42.113Z,12.90
2019-03-01T19:33:09.363Z,12.67
2019-03-01T19:35:36.624Z,11.73
2019-03-01T19:38:03.880Z,11.47
2019-03-01T19:40:31.162Z,12.30
2019-03-01T19:42:58.496Z,12.97
2019-03-01T19:45:25.840Z,11.73
2019-03-01T19:47:53.092Z,11.17
2019-03-01T19:50:21.835Z,11.63
2019-03-01T19:52:50.586Z,10.63
2019-03-01T19:55:18.560Z,10.70
2019-03-01T19:57:45.820Z,10.87
2019-03-01T20:00:15.334Z,10.90
2019-03-01T20:02:42.703Z,11.10
2019-03-01T20:05:11.580Z,11.33
2019-03-01T20:07:38.831Z,10.93
2019-03-01T20:10:07.175Z,11.00
2019-03-01T20:12:36.869Z,11.80
2019-03-01T20:15:06.631Z,12.13
2019-03-01T20:17:34.301Z,13.70
2019-03-01T20:20:03.152Z,13.17
2019-03-01T20:22:32.080Z,13.13
2019-03-01T20:24:59.615Z,13.53
2019-03-01T20:27:26.885Z,14.53
2019-03-01T20:29:54.211Z,14.90
2019-03-01T20:32:21.504Z,15.47
2019-03-01T20:34:48.852Z,16.00
2019-03-01T20:37:16.115Z,16.83
2019-03-01T20:39:43.461Z,18.10
2019-03-01T20:42:10.844Z,19.23
2019-03-01T20:44:38.135Z,20.47
2019-03-01T20:47:05.420Z,19.30
2019-03-01T20:49:35.766Z,20.43
2019-03-01T20:52:03.309Z,20.73
2019-03-01T20:54:30.853Z,20.87
2019-03-01T20:56:58.104Z,20.90
2019-03-01T20:59:25.522Z,21.13
2019-03-01T21:01:52.798Z,18.30
2019-03-01T21:04:20.062Z,20.20
2019-03-01T21:06:47.325Z,19.57
2019-03-01T21:09:14.670Z,19.97
2019-03-01T21:11:42.007Z,21.03
2019-03-01T21:14:09.392Z,19.80
2019-03-01T21:16:36.644Z,19.73
2019-03-01T21:19:05.827Z,20.47
2019-03-01T21:21:33.167Z,20.10
2019-03-01T21:24:00.472Z,21.37
2019-03-01T21:26:27.739Z,20.00
2019-03-01T21:28:54.988Z,21.03
2019-03-01T21:31:22.256Z,19.70
2019-03-01T21:33:49.609Z,21.20
2019-03-01T21:36:16.870Z,20.07
2019-03-01T21:38:45.754Z,20.77
2019-03-01T21:41:13.306Z,21.40
2019-03-01T21:43:40.571Z,20.63
2019-03-01T21:46:08.599Z,21.70
2019-03-01T21:48:36.010Z,22.67
2019-03-01T21:51:03.258Z,23.43
2019-03-01T21:53:30.545Z,22.23
2019-03-01T21:56:00.566Z,23.30
2019-03-01T21:58:27.072Z,22.67
2019-03-01T22:00:54.378Z,22.83
2019-03-01T22:03:24.793Z,21.67
2019-03-01T22:05:50.848Z,22.00
2019-03-01T22:08:18.103Z,23.70
2019-03-01T22:10:45.476Z,23.53
2019-03-01T22:13:12.762Z,23.33
2019-03-01T22:15:40.127Z,20.97
2019-03-01T22:18:07.393Z,22.63
2019-03-01T22:20:34.676Z,22.57
2019-03-01T22:23:01.941Z,22.10
2019-03-01T22:25:29.193Z,23.60
2019-03-01T22:27:57.711Z,22.57
2019-03-01T22:30:27.063Z,23.57
2019-03-01T22:32:54.410Z,23.30
2019-03-01T22:35:21.702Z,23.07
2019-03-01T22:37:48.973Z,23.43
2019-03-01T22:40:16.221Z,24.13
2019-03-01T22:42:45.687Z,23.10
2019-03-01T22:45:13.741Z,24.27
2019-03-01T22:47:41.894Z,24.83
2019-03-01T22:50:10.304Z,25.47
2019-03-01T22:52:37.579Z,25.63
2019-03-01T22:55:05.209Z,23.63
2019-03-01T22:57:32.470Z,25.47
2019-03-01T22:59:59.754Z,25.07
2019-03-01T23:02:29.749Z,23.57
2019-03-01T23:04:57.172Z,25.17
2019-03-01T23:07:26.431Z,22.83
2019-03-01T23:09:53.584Z,24.40
2019-03-01T23:12:33.715Z,24.97
2019-03-01T23:15:06.734Z,23.27
2019-03-01T23:17:33.577Z,23.63
2019-03-01T23:20:00.819Z,23.37
2019-03-01T23:22:28.109Z,23.77
2019-03-01T23:24:55.495Z,23.70
2019-03-01T23:27:22.740Z,25.53
2019-03-01T23:29:50.970Z,24.80
2019-03-01T23:32:19.139Z,23.93
2019-03-01T23:34:46.383Z,26.03
2019-03-01T23:37:13.636Z,24.70
2019-03-01T23:39:40.887Z,25.20
2019-03-01T23:42:08.135Z,23.83
2019-03-01T23:44:35.379Z,23.80
2019-03-01T23:47:03.634Z,23.43
2019-03-01T23:49:31.104Z,23.47
2019-03-01T23:51:58.423Z,24.20
2019-03-01T23:54:25.665Z,24.67
2019-03-01T23:56:52.899Z,23.00
2019-03-01T23:59:20.153Z,23.70
